Flight Track Log - Related Links

Times and Time Zones

All times are in EDT time to prevent confusion due to time zone crossing. See the AAY877 flight status page for this flight to view local times or setup timezone preferences in your user account.

Time Position Orientation Groundspeed Altitude Reporting Facility
EDT Latitude Longitude Course Direction KTS MPH feet Rate Location/Type
Thu 06:24:29 PM 42.1819 -89.1472 212° Southwest 179 206 31,000  Level Chicago Center
Thu 06:25:31 PM 42.1450 -89.1786 212° Southwest 188 216 4,200 -12,145 Descending Chicago Center
Thu 06:26:33 PM 42.0817 -89.1433 158° South 245 282 5,900 2,081 Climbing Chicago Center
Thu 06:27:35 PM 42.0022 -89.1033 159° South 265 305 8,500 2,371 Climbing Chicago Center
Thu 06:28:37 PM 41.9272 -89.0689 161° South 282 325 10,800 1,887 Climbing Chicago Center
Thu 06:29:39 PM 41.8425 -89.0281 160° South 321 369 12,400 1,984 Climbing Chicago Center
Thu 06:30:41 PM 41.7525 -88.9844 160° South 340 391 14,900 1,984 Climbing Chicago Center
Thu 06:31:43 PM 41.6425 -88.9311 160° South 349 402 16,500 1,392 Climbing Chicago Center
Thu 06:32:46 PM 41.5403 -88.8756 158° South 388 447 17,800 1,296 Climbing Chicago Center
Thu 06:33:48 PM 41.4350 -88.8161 157° South 406 467 19,200 1,355 Climbing Chicago Center
Thu 06:34:50 PM 41.3286 -88.7550 157° South 414 476 20,600 1,306 Climbing Chicago Center
Thu 06:35:52 PM 41.2200 -88.6953 158° South 423 487 21,900 1,548 Climbing Chicago Center
Thu 06:36:54 PM 41.0864 -88.6203 157° South 432 497 23,800 1,694 Climbing Chicago Center
Thu 06:37:56 PM 40.9778 -88.5586 157° South 431 496 25,400 1,161 Climbing Chicago Center
Thu 06:38:58 PM 40.8692 -88.4986 157° South 430 495 26,200 1,016 Climbing Chicago Center
Thu 06:40:00 PM 40.7589 -88.4369 157° South 430 495 27,500 1,056 Climbing Chicago Center
Thu 06:41:03 PM 40.6483 -88.3750 157° South 431 496 28,400 1,008 Climbing Chicago Center
Thu 06:42:05 PM 40.5158 -88.3022 157° South 431 496 29,600 1,210 Climbing Chicago Center
Thu 06:43:07 PM 40.4056 -88.2425 158° South 431 496 30,900 677 Climbing Chicago Center
Thu 06:44:09 PM 40.2986 -88.1839 157° South 422 486 31,000 48 Climbing Chicago Center
Thu 06:45:11 PM 40.1886 -88.1236 157° South 417 480 31,000  Level Chicago Center
Thu 06:46:13 PM 40.0814 -88.0667 158° South 418 481 31,000  Level Chicago Center
Thu 06:47:15 PM 39.9742 -88.0114 158° South 417 480 31,000  Level Chicago Center
Thu 06:48:17 PM 39.8447 -87.9400 157° South 417 480 31,000  Level Chicago Center
Thu 06:48:54 PM 39.7992 -87.9153 157° South 419 482 31,000  Level Indianapolis Center
Thu 06:49:58 PM 39.6686 -87.8458 158° South 421 484 31,000  Level Indianapolis Center
Thu 06:50:58 PM 39.5575 -87.7878 158° South 426 490 31,000  Level Indianapolis Center
Thu 06:52:02 PM 39.4478 -87.7289 157° South 427 491 31,000  Level Indianapolis Center
Thu 06:53:03 PM 39.3411 -87.6725 158° South 427 491 31,000  Level Indianapolis Center
Thu 06:54:04 PM 39.2286 -87.6133 158° South 427 491 31,000  Level Indianapolis Center
Thu 06:55:08 PM 39.0989 -87.5444 158° South 427 491 31,000  Level Indianapolis Center
Thu 06:56:08 PM 38.9892 -87.4872 158° South 426 490 31,000  Level Indianapolis Center
Thu 06:57:12 PM 38.8800 -87.4308 158° South 426 490 31,000  Level Indianapolis Center
Thu 06:58:12 PM 38.7711 -87.3742 158° South 425 489 31,000  Level Indianapolis Center
Thu 06:59:16 PM 38.6608 -87.3172 158° South 424 488 31,000  Level Indianapolis Center
Thu 07:00:17 PM 38.5522 -87.2611 158° South 424 488 31,000  Level Indianapolis Center
Thu 07:01:18 PM 38.4222 -87.1953 158° South 422 486 31,000  Level Indianapolis Center
Thu 07:02:22 PM 38.3167 -87.1419 158° South 422 486 31,000  Level Indianapolis Center
Thu 07:03:23 PM 38.2067 -87.0847 158° South 422 486 31,000  Level Indianapolis Center
Thu 07:04:24 PM 38.0769 -87.0194 158° South 425 489 31,000  Level Indianapolis Center
Thu 07:05:29 PM 37.9669 -86.9628 158° South 425 489 31,000  Level Indianapolis Center
Thu 07:06:29 PM 37.8567 -86.9067 158° South 425 489 31,000  Level Indianapolis Center
Thu 07:07:33 PM 37.7447 -86.8500 158° South 426 490 31,000  Level Indianapolis Center
Thu 07:08:34 PM 37.6319 -86.7925 158° South 430 495 31,000  Level Indianapolis Center
Thu 07:09:35 PM 37.5103 -86.7306 158° South 432 497 31,000  Level Indianapolis Center
Thu 07:10:39 PM 37.3956 -86.6731 158° South 435 501 31,000  Level Indianapolis Center
Thu 07:11:39 PM 37.2811 -86.6169 159° South 437 503 31,000  Level Indianapolis Center
Thu 07:12:43 PM 37.1650 -86.5631 160° South 437 503 31,000 -520 Level Indianapolis Center
Thu 07:13:46 PM 37.0250 -86.5139 164° South 441 507 29,900 -960 Descending Indianapolis Center
Thu 07:14:48 PM 36.9069 -86.4711 164° South 440 506 29,000 -443 Descending Indianapolis Center
Thu 07:15:48 PM 36.7861 -86.4283 164° South 440 506 29,000  Level Indianapolis Center
Thu 07:16:52 PM 36.6653 -86.3847 164° South 442 509 29,000  Level Indianapolis Center
Thu 07:17:52 PM 36.5425 -86.3411 164° South 448 516 29,000  Level Indianapolis Center
Thu 07:18:56 PM 36.4189 -86.2972 164° South 450 518 29,000  Level Indianapolis Center
Thu 07:19:56 PM 36.2969 -86.2547 164° South 450 518 29,000  Level Indianapolis Center
Thu 07:21:01 PM 36.1747 -86.2125 164° South 450 518 29,000  Level Indianapolis Center
Thu 07:22:01 PM 36.0519 -86.1700 164° South 450 518 29,000  Level Indianapolis Center
Thu 07:23:04 PM 35.9100 -86.1192 164° South 450 518 29,000  Level Indianapolis Center
Thu 07:24:29 PM 35.7447 -86.0622 164° South 451 519 29,000  Level Memphis Center
Thu 07:25:31 PM 35.6208 -86.0211 165° South 452 520 29,000  Level Memphis Center
Thu 07:26:33 PM 35.4819 -85.9719 164° South 452 520 29,000  Level Memphis Center
Thu 07:27:35 PM 35.3597 -85.9308 165° South 453 521 29,000  Level Memphis Center
Thu 07:28:37 PM 35.2392 -85.8889 164° South 453 521 29,000  Level Memphis Center
Thu 07:29:39 PM 35.1186 -85.8475 164° South 453 521 29,000  Level Memphis Center
Thu 07:30:42 PM 34.9978 -85.8053 164° South 453 521 29,000  Level Memphis Center
Thu 07:31:44 PM 34.8767 -85.7647 165° South 453 521 29,000  Level Memphis Center
Thu 07:32:46 PM 34.7325 -85.7156 164° South 453 521 29,000  Level Memphis Center
Thu 07:33:48 PM 34.6119 -85.6750 165° South 452 520 29,000  Level Memphis Center
Thu 07:34:50 PM 34.4847 -85.6319 164° South 452 520 29,000  Level Memphis Center
Thu 07:35:52 PM 34.3697 -85.5928 164° South 452 520 29,000  Level Memphis Center
Thu 07:36:58 PM 34.2253 -85.5486 166° South 450 518 29,000  Level Atlanta Center
Thu 07:37:58 PM 34.1050 -85.5064 164° South 450 518 29,000  Level Atlanta Center
Thu 07:38:58 PM 33.9822 -85.4667 165° South 450 518 29,000  Level Atlanta Center
Thu 07:39:58 PM 33.8617 -85.4272 165° South 450 518 29,000  Level Atlanta Center
Thu 07:40:58 PM 33.7431 -85.3878 165° South 450 518 29,000  Level Atlanta Center
Thu 07:41:58 PM 33.6203 -85.3461 164° South 445 512 29,000  Level Atlanta Center
Thu 07:42:58 PM 33.4997 -85.3069 165° South 450 518 29,000  Level Atlanta Center
Thu 07:43:58 PM 33.3811 -85.2703 166° South 450 518 29,000  Level Atlanta Center
Thu 07:44:58 PM 33.2603 -85.2314 165° South 450 518 29,000  Level Atlanta Center
Thu 07:45:58 PM 33.1417 -85.1925 165° South 445 512 29,000  Level Atlanta Center
Thu 07:46:58 PM 33.0461 -85.1539 161° South 445 512 29,000  Level Atlanta Center
Thu 07:47:58 PM 32.9044 -85.1175 168° South 445 512 29,000  Level Atlanta Center
Thu 07:48:58 PM 32.7881 -85.0742 163° South 445 512 29,000  Level Atlanta Center
Thu 07:49:58 PM 32.6653 -85.0333 164° South 458 527 29,000  Level Atlanta Center
Thu 07:50:58 PM 32.5464 -84.9975 166° South 452 520 29,000  Level Atlanta Center
Thu 07:51:58 PM 32.4217 -84.9567 165° South 452 520 29,000  Level Atlanta Center
Thu 07:52:58 PM 32.3153 -84.9211 164° South 452 520 29,000  Level Atlanta Center
Thu 07:53:58 PM 32.1819 -84.8831 166° South 452 520 29,000  Level Atlanta Center
Thu 07:57:33 PM 31.7542 -84.7469 165° South 449 517 29,000  Level Jacksonville Center
Thu 07:58:33 PM 31.6358 -84.7081 164° South 450 518 29,000  Level Jacksonville Center
Thu 07:59:33 PM 31.5153 -84.6667 164° South 450 518 29,000  Level Jacksonville Center
Thu 08:00:33 PM 31.4011 -84.6086 157° South 450 518 29,000  Level Jacksonville Center
Thu 08:01:33 PM 31.2850 -84.5506 157° South 450 518 29,000  Level Jacksonville Center
Thu 08:02:33 PM 31.1689 -84.4903 156° South 455 524 29,000  Level Jacksonville Center
Thu 08:03:33 PM 31.0547 -84.4325 157° South 455 524 29,000  Level Jacksonville Center
Thu 08:04:33 PM 30.9364 -84.3700 156° South 455 524 29,000  Level Jacksonville Center
Thu 08:05:33 PM 30.8222 -84.3150 158° South 455 524 29,000 -100 Level Jacksonville Center
Thu 08:06:33 PM 30.7081 -84.2553 156° South 455 524 28,800 -650 Descending Jacksonville Center
Thu 08:07:33 PM 30.6003 -84.1983 156° South 448 516 27,700 -950 Descending Jacksonville Center
Thu 08:08:33 PM 30.5086 -84.1536 157° South 423 487 26,900 -350 Descending Jacksonville Center
Thu 08:09:33 PM 30.3967 -84.0944 155° Southeast 416 479 27,000  Climbing Jacksonville Center
Thu 08:10:33 PM 30.2864 -84.0425 158° South 416 479 26,900  Descending Jacksonville Center
Thu 08:11:33 PM 30.1783 -83.9883 157° South 416 479 27,000  Climbing Jacksonville Center
Thu 08:12:33 PM 30.0703 -83.9319 156° South 416 479 26,900  Descending Jacksonville Center
Thu 08:13:33 PM 29.9619 -83.8781 157° South 416 479 27,000  Climbing Jacksonville Center
Thu 08:14:33 PM 29.8519 -83.8242 157° South 421 484 26,900 -200 Descending Jacksonville Center
Thu 08:15:33 PM 29.7375 -83.7681 157° South 431 496 26,600 -700 Descending Jacksonville Center
Thu 08:16:33 PM 29.6333 -83.7144 156° South 426 490 25,500 -800 Descending Jacksonville Center
Thu 08:17:33 PM 29.5211 -83.6611 158° South 426 490 25,000 -300 Descending Jacksonville Center
Thu 08:18:33 PM 29.4086 -83.6053 157° South 431 496 24,900  Descending Jacksonville Center
Thu 08:19:33 PM 29.2983 -83.5497 156° South 431 496 25,000  Climbing Jacksonville Center
Thu 08:20:33 PM 29.1900 -83.4919 155° Southeast 431 496 24,900 -250 Descending Jacksonville Center
Thu 08:21:33 PM 29.0858 -83.4247 151° Southeast 431 496 24,500 -700 Descending Jacksonville Center
Thu 08:22:33 PM 28.9839 -83.3578 150° Southeast 424 488 23,500 -1,250 Descending Jacksonville Center
Thu 08:23:33 PM 28.8819 -83.2956 152° Southeast 424 488 22,000 -1,800 Descending Jacksonville Center
Thu 08:24:33 PM 28.7819 -83.2289 150° Southeast 419 482 19,900 -1,850 Descending Jacksonville Center
Thu 08:25:33 PM 28.6858 -83.1694 152° Southeast 407 468 18,300 -1,920 Descending Jacksonville Center
Thu 08:26:38 PM 28.5833 -83.1000 149° Southeast 363 418 15,900 -2,277 Descending Tampa TRACON
Thu 08:27:50 PM 28.4833 -83.0333 150° Southeast 339 390 13,100 -1,727 Descending Tampa TRACON
Thu 08:28:50 PM 28.4000 -82.9833 152° Southeast 326 375 12,100 -1,250 Descending Tampa TRACON
Thu 08:29:50 PM 28.3167 -82.9500 161° South 282 325 10,600 -1,632 Descending Tampa TRACON
Thu 08:30:44 PM 28.2667 -82.9167 150° Southeast 283 326 9,000 -1,842 Descending Tampa TRACON
Thu 08:31:44 PM 28.2000 -82.8833 156° South 277 319 7,100 -1,700 Descending Tampa TRACON
Thu 08:32:44 PM 28.1333 -82.8667 168° South 239 275 5,600 -1,250 Descending Tampa TRACON
Thu 08:33:44 PM 28.0667 -82.8667 180° South 194 223 4,600 -1,000 Descending Tampa TRACON
Thu 08:34:44 PM 28.0167 -82.8333 150° Southeast 167 192 3,600 -1,000 Descending Tampa TRACON
Thu 08:35:44 PM 27.9833 -82.8167 156° South 162 186 2,600 -800 Descending Tampa TRACON
Thu 08:36:44 PM 27.9333 -82.8000 164° South 175 201 2,000 -300 Descending Tampa TRACON
Thu 08:37:44 PM 27.8833 -82.7833 164° South 166 191 2,000  Level Tampa TRACON
Thu 08:38:44 PM 27.8500 -82.7667 156° South 155 178 2,000  Level Tampa TRACON
Thu 08:39:38 PM 27.8167 -82.7333 139° Southeast 149 171 2,000 -158 Level Tampa TRACON
Thu 08:40:38 PM 27.8333 -82.6833 69° East 136 157 1,700 -650 Descending Tampa TRACON
Thu 08:41:38 PM 27.8667 -82.6833 360° North 156 180 700 -1,000 Descending Tampa TRACON

Login

Don't have an account? Register now (free) for customized features, flight alerts, and more!